createdAt,value
2019-03-20T16:01:06.518Z,300.00
2019-03-20T16:02:06.497Z,300.00
2019-03-20T16:03:06.489Z,296.00
2019-03-20T16:04:06.485Z,292.00
2019-03-20T16:05:06.518Z,292.00
2019-03-20T16:06:06.470Z,288.00
2019-03-20T16:07:06.464Z,288.00
2019-03-20T16:08:06.456Z,284.00
2019-03-20T16:09:06.449Z,280.00
2019-03-20T16:10:06.440Z,280.00
2019-03-20T16:11:07.066Z,276.00
2019-03-20T16:12:06.428Z,276.00
2019-03-20T16:13:34.152Z,272.00
2019-03-20T16:14:34.149Z,272.00
2019-03-20T16:15:34.142Z,264.00
2019-03-20T16:16:34.139Z,264.00
2019-03-20T16:17:34.128Z,260.00
2019-03-20T16:18:34.122Z,256.00
2019-03-20T16:19:34.115Z,252.00
2019-03-20T16:20:34.108Z,248.00
2019-03-20T16:21:34.127Z,252.00
2019-03-20T16:22:34.099Z,244.00
2019-03-20T16:23:34.093Z,248.00
2019-03-20T16:24:34.086Z,248.00
2019-03-20T16:25:34.084Z,244.00
2019-03-20T16:26:34.077Z,240.00
2019-03-20T16:27:34.069Z,240.00
2019-03-20T16:28:34.063Z,236.00
2019-03-20T16:29:34.057Z,228.00
2019-03-20T16:30:34.049Z,224.00
2019-03-20T16:31:34.045Z,216.00
2019-03-20T16:32:34.244Z,216.00
2019-03-20T16:33:34.031Z,212.00
2019-03-20T16:34:34.024Z,212.00
2019-03-20T16:35:34.042Z,212.00
2019-03-20T16:36:34.038Z,208.00
2019-03-20T16:37:34.028Z,204.00
2019-03-20T16:38:34.022Z,200.00
2019-03-20T16:39:34.020Z,196.00
2019-03-20T16:40:34.007Z,196.00
2019-03-20T16:41:34.003Z,200.00
2019-03-20T16:42:33.997Z,196.00
2019-03-20T16:43:33.988Z,192.00
2019-03-20T16:44:33.983Z,184.00
2019-03-20T16:45:33.977Z,180.00
2019-03-20T16:46:33.970Z,180.00
2019-03-20T16:47:33.964Z,172.00
2019-03-20T16:48:33.958Z,168.00
2019-03-20T16:49:33.951Z,164.00
2019-03-20T16:50:33.951Z,164.00
2019-03-20T16:51:33.935Z,164.00
2019-03-20T16:52:33.930Z,160.00
2019-03-20T16:53:33.925Z,156.00
2019-03-20T16:54:33.916Z,152.00
2019-03-20T16:55:33.910Z,152.00
2019-03-20T16:56:33.905Z,144.00
2019-03-20T16:57:33.899Z,144.00
2019-03-20T16:58:33.889Z,140.00
2019-03-20T16:59:33.882Z,136.00
2019-03-20T17:00:33.878Z,132.00
2019-03-20T17:01:33.870Z,132.00
2019-03-20T17:02:33.915Z,128.00
2019-03-20T17:03:33.856Z,128.00
2019-03-20T17:04:33.850Z,120.00
2019-03-20T17:05:33.842Z,116.00
2019-03-20T17:06:33.833Z,116.00
2019-03-20T17:07:33.828Z,112.00
2019-03-20T17:08:33.821Z,108.00
2019-03-20T17:09:33.817Z,104.00
2019-03-20T17:10:33.815Z,104.00
2019-03-20T17:11:38.263Z,100.00
2019-03-20T17:12:33.797Z,96.00
2019-03-20T17:13:33.791Z,92.00
2019-03-20T17:14:33.782Z,88.00
2019-03-20T17:15:33.778Z,84.00
2019-03-20T17:16:33.769Z,80.00
2019-03-20T17:17:33.762Z,80.00
2019-03-20T17:18:33.758Z,76.00
2019-03-20T17:19:33.751Z,72.00
2019-03-20T17:20:33.746Z,64.00
2019-03-20T17:21:34.139Z,60.00
2019-03-20T17:22:41.740Z,56.00
2019-03-20T17:24:01.401Z,52.00
2019-03-20T17:25:01.404Z,52.00
2019-03-20T17:26:01.393Z,48.00
2019-03-20T17:27:01.385Z,40.00
2019-03-20T17:28:01.380Z,40.00
2019-03-20T17:29:08.598Z,36.00
2019-03-20T17:30:29.094Z,32.00
2019-03-20T17:31:29.091Z,32.00
2019-03-20T17:32:29.083Z,32.00
2019-03-20T17:33:29.081Z,28.00
2019-03-20T17:34:30.647Z,24.00
2019-03-20T17:35:29.063Z,20.00
2019-03-20T17:36:29.058Z,20.00
2019-03-20T17:37:29.051Z,20.00
2019-03-20T17:38:29.046Z,16.00
2019-03-20T17:39:29.039Z,16.00
2019-03-20T17:40:29.033Z,16.00
2019-03-20T17:41:36.453Z,12.00
2019-03-20T17:42:56.749Z,12.00
2019-03-20T17:43:56.744Z,8.00
2019-03-20T17:44:56.736Z,8.00
2019-03-20T17:45:56.731Z,8.00
2019-03-20T17:46:56.723Z,4.00
2019-03-20T17:47:56.717Z,4.00
2019-03-20T17:48:56.710Z,4.00
2019-03-20T17:49:56.705Z,4.00
2019-03-20T17:50:56.698Z,4.00
2019-03-20T17:51:56.690Z,0.00
2019-03-20T17:52:56.685Z,4.00
2019-03-20T17:53:56.675Z,4.00
2019-03-20T17:54:56.669Z,0.00
2019-03-20T17:55:56.664Z,0.00
2019-03-20T17:56:56.656Z,0.00
2019-03-20T17:57:56.650Z,0.00
2019-03-20T17:58:56.643Z,0.00
2019-03-20T17:59:56.636Z,0.00
2019-03-20T18:00:56.629Z,0.00
2019-03-20T18:01:56.621Z,0.00
2019-03-20T18:02:56.620Z,0.00
2019-03-20T18:03:56.610Z,0.00
2019-03-20T18:04:56.603Z,0.00
2019-03-20T18:05:56.603Z,0.00
2019-03-20T18:06:56.592Z,0.00
2019-03-20T18:07:56.586Z,0.00
2019-03-20T18:08:56.585Z,0.00
2019-03-20T18:09:56.574Z,0.00
2019-03-20T18:10:56.563Z,0.00
2019-03-20T18:11:56.561Z,0.00
2019-03-20T18:12:56.555Z,0.00
2019-03-20T18:13:56.547Z,0.00
2019-03-20T18:14:56.537Z,0.00
2019-03-20T18:15:56.532Z,0.00
2019-03-20T18:16:56.529Z,0.00
2019-03-20T18:17:56.522Z,0.00
2019-03-20T18:18:56.514Z,0.00
2019-03-20T18:19:56.509Z,0.00
2019-03-20T18:20:56.503Z,0.00
2019-03-20T18:21:56.503Z,0.00
2019-03-20T18:22:56.488Z,0.00
2019-03-20T18:23:56.481Z,0.00
2019-03-20T18:24:56.477Z,0.00
2019-03-20T18:25:56.496Z,0.00
2019-03-20T18:26:56.487Z,0.00
2019-03-20T18:27:56.499Z,0.00
2019-03-20T18:28:56.488Z,0.00
2019-03-20T18:29:56.481Z,0.00
2019-03-20T18:30:56.477Z,0.00
2019-03-20T18:31:56.470Z,0.00
2019-03-20T18:32:56.462Z,0.00
2019-03-20T18:33:56.455Z,0.00
2019-03-20T18:34:56.449Z,0.00
2019-03-20T18:35:56.444Z,0.00
2019-03-20T18:36:56.437Z,0.00
2019-03-20T18:37:56.434Z,0.00
2019-03-20T18:38:56.426Z,0.00
2019-03-20T18:39:56.418Z,0.00
2019-03-20T18:40:56.413Z,0.00
2019-03-20T18:41:57.995Z,0.00
2019-03-20T18:42:56.397Z,0.00
2019-03-20T18:43:56.389Z,0.00
2019-03-20T18:44:56.384Z,0.00
2019-03-20T18:45:56.377Z,0.00
2019-03-20T18:46:56.371Z,0.00
2019-03-20T18:47:56.370Z,0.00
2019-03-20T18:48:56.358Z,0.00
2019-03-20T18:49:56.357Z,0.00
2019-03-20T18:50:56.344Z,0.00
2019-03-20T18:51:56.338Z,0.00
2019-03-20T18:52:56.330Z,0.00
2019-03-20T18:53:56.327Z,0.00
2019-03-20T18:54:56.323Z,0.00
2019-03-20T18:55:56.312Z,0.00
2019-03-20T18:56:56.306Z,0.00
2019-03-20T18:57:56.302Z,0.00
2019-03-20T18:58:56.294Z,0.00
2019-03-20T18:59:56.285Z,0.00
2019-03-20T19:00:56.280Z,0.00
2019-03-20T19:01:56.277Z,0.00
2019-03-20T19:02:56.266Z,0.00
2019-03-20T19:03:56.259Z,0.00
2019-03-20T19:04:56.255Z,0.00
2019-03-20T19:05:56.250Z,0.00
2019-03-20T19:06:56.242Z,0.00
2019-03-20T19:07:56.247Z,0.00
2019-03-20T19:08:56.229Z,0.00
2019-03-20T19:09:56.223Z,0.00
2019-03-20T19:10:56.220Z,0.00
2019-03-20T19:11:56.211Z,0.00
2019-03-20T19:12:56.204Z,0.00
2019-03-20T19:13:56.202Z,0.00
2019-03-20T19:14:56.193Z,0.00
2019-03-20T19:15:56.194Z,0.00
2019-03-20T19:16:56.181Z,0.00
2019-03-20T19:17:56.176Z,0.00
2019-03-20T19:18:56.167Z,0.00
2019-03-20T19:19:56.160Z,0.00
2019-03-20T19:20:56.157Z,0.00
2019-03-20T19:21:56.145Z,0.00
2019-03-20T19:22:56.148Z,0.00
2019-03-20T19:23:56.150Z,0.00
2019-03-20T19:24:56.138Z,0.00
2019-03-20T19:25:56.147Z,0.00
2019-03-20T19:26:56.135Z,0.00
2019-03-20T19:27:56.136Z,0.00
2019-03-20T19:28:56.122Z,0.00
2019-03-20T19:29:56.117Z,0.00
2019-03-20T19:30:56.116Z,0.00
2019-03-20T19:31:56.104Z,0.00
2019-03-20T19:32:56.098Z,0.00
2019-03-20T19:33:56.090Z,0.00
2019-03-20T19:34:56.085Z,0.00
2019-03-20T19:35:56.078Z,0.00
2019-03-20T19:36:56.073Z,0.00
2019-03-20T19:37:56.066Z,0.00
2019-03-20T19:38:56.060Z,0.00
2019-03-20T19:39:56.054Z,0.00
2019-03-20T19:40:56.046Z,0.00
2019-03-20T19:41:56.043Z,0.00
2019-03-20T19:42:56.036Z,0.00
2019-03-20T19:43:56.028Z,0.00
2019-03-20T19:44:56.022Z,0.00
2019-03-20T19:45:56.037Z,0.00
2019-03-20T19:46:56.032Z,0.00
2019-03-20T19:47:56.025Z,0.00
2019-03-20T19:48:56.023Z,0.00
2019-03-20T19:49:56.018Z,0.00
2019-03-20T19:50:56.010Z,0.00
2019-03-20T19:51:56.004Z,0.00
2019-03-20T19:52:55.997Z,0.00
2019-03-20T19:53:55.996Z,0.00
2019-03-20T19:54:55.985Z,0.00
2019-03-20T19:55:55.976Z,0.00
2019-03-20T19:56:55.973Z,0.00
2019-03-20T19:57:55.964Z,0.00
2019-03-20T19:58:55.958Z,0.00
2019-03-20T19:59:55.950Z,0.00
2019-03-20T20:00:55.943Z,0.00
2019-03-20T20:01:55.939Z,0.00
2019-03-20T20:02:55.940Z,0.00
2019-03-20T20:03:55.926Z,0.00
2019-03-20T20:04:55.918Z,0.00
2019-03-20T20:05:55.912Z,0.00
2019-03-20T20:06:55.906Z,0.00
2019-03-20T20:07:55.901Z,0.00
2019-03-20T20:08:55.895Z,0.00
2019-03-20T20:09:55.886Z,0.00
2019-03-20T20:10:55.880Z,0.00
2019-03-20T20:11:55.870Z,0.00
2019-03-20T20:12:55.865Z,0.00
2019-03-20T20:13:55.857Z,0.00
2019-03-20T20:14:55.852Z,0.00
2019-03-20T20:15:55.847Z,0.00
2019-03-20T20:16:55.839Z,0.00
2019-03-20T20:17:55.832Z,0.00
2019-03-20T20:18:55.827Z,0.00
2019-03-20T20:19:55.823Z,0.00
2019-03-20T20:20:55.812Z,0.00
2019-03-20T20:21:55.804Z,0.00
2019-03-20T20:22:55.798Z,0.00
2019-03-20T20:23:55.814Z,0.00
2019-03-20T20:24:55.806Z,0.00
2019-03-20T20:25:55.802Z,0.00
2019-03-20T20:26:55.796Z,0.00
2019-03-20T20:27:55.788Z,0.00
2019-03-20T20:28:55.781Z,0.00
2019-03-20T20:29:55.799Z,0.00
2019-03-20T20:30:55.792Z,0.00
2019-03-20T20:31:55.784Z,0.00
2019-03-20T20:32:55.778Z,0.00
2019-03-20T20:33:55.769Z,0.00
2019-03-20T20:34:55.763Z,0.00
2019-03-20T20:35:55.757Z,0.00
2019-03-20T20:36:55.752Z,0.00
2019-03-20T20:37:55.744Z,0.00
2019-03-20T20:38:55.739Z,0.00
2019-03-20T20:39:55.733Z,0.00
2019-03-20T20:40:55.724Z,0.00
2019-03-20T20:41:55.718Z,0.00
2019-03-20T20:42:55.710Z,0.00
2019-03-20T20:43:55.704Z,0.00
2019-03-20T20:44:55.701Z,0.00
2019-03-20T20:45:55.694Z,0.00
2019-03-20T20:46:55.687Z,0.00
2019-03-20T20:47:55.680Z,0.00
2019-03-20T20:48:55.670Z,0.00
2019-03-20T20:49:55.663Z,0.00
2019-03-20T20:50:55.679Z,0.00
2019-03-20T20:51:55.675Z,0.00
2019-03-20T20:52:55.673Z,0.00
2019-03-20T20:53:55.664Z,0.00
2019-03-20T20:54:55.655Z,0.00
2019-03-20T20:55:55.657Z,0.00
2019-03-20T20:56:55.646Z,0.00
2019-03-20T20:57:55.638Z,0.00
2019-03-20T20:58:55.629Z,0.00
2019-03-20T20:59:55.624Z,0.00
2019-03-20T21:00:55.620Z,0.00
2019-03-20T21:01:55.613Z,0.00
2019-03-20T21:02:55.606Z,0.00
2019-03-20T21:03:55.602Z,0.00
2019-03-20T21:04:55.598Z,0.00
2019-03-20T21:05:55.587Z,0.00
2019-03-20T21:06:55.580Z,0.00
2019-03-20T21:07:55.574Z,0.00
2019-03-20T21:08:55.565Z,0.00
2019-03-20T21:09:55.559Z,0.00
2019-03-20T21:10:55.554Z,0.00
2019-03-20T21:11:55.546Z,0.00
2019-03-20T21:12:57.352Z,0.00
2019-03-20T21:13:55.533Z,0.00
2019-03-20T21:14:55.527Z,0.00
2019-03-20T21:15:55.521Z,0.00
2019-03-20T21:16:55.512Z,0.00
2019-03-20T21:17:55.506Z,0.00
2019-03-20T21:18:55.498Z,0.00
2019-03-20T21:19:55.490Z,0.00
2019-03-20T21:20:55.489Z,0.00
2019-03-20T21:21:55.501Z,0.00
2019-03-20T21:22:55.493Z,0.00
2019-03-20T21:23:55.487Z,0.00
2019-03-20T21:24:55.483Z,0.00
2019-03-20T21:25:55.478Z,0.00
2019-03-20T21:26:55.529Z,0.00
2019-03-20T21:27:55.463Z,0.00
2019-03-20T21:28:55.456Z,0.00
2019-03-20T21:29:55.449Z,0.00
2019-03-20T21:30:55.440Z,0.00
2019-03-20T21:31:55.434Z,0.00
2019-03-20T21:32:55.429Z,0.00
2019-03-20T21:33:55.422Z,0.00
2019-03-20T21:34:55.415Z,0.00
2019-03-20T21:35:55.419Z,0.00
2019-03-20T21:36:55.404Z,0.00
2019-03-20T21:37:55.397Z,0.00
2019-03-20T21:38:55.391Z,0.00
2019-03-20T21:39:55.384Z,0.00
2019-03-20T21:40:55.378Z,0.00
2019-03-20T21:41:55.374Z,0.00
2019-03-20T21:43:06.324Z,0.00
2019-03-20T21:44:23.134Z,0.00
2019-03-20T21:45:23.132Z,0.00
2019-03-20T21:46:23.129Z,0.00
2019-03-20T21:47:23.117Z,0.00
2019-03-20T21:48:23.110Z,0.00
2019-03-20T21:49:23.104Z,0.00
2019-03-20T21:50:23.094Z,0.00
2019-03-20T21:51:23.091Z,0.00
2019-03-20T21:52:23.083Z,0.00
2019-03-20T21:53:23.076Z,0.00
2019-03-20T21:54:23.071Z,0.00
2019-03-20T21:55:23.063Z,0.00
2019-03-20T21:56:23.057Z,0.00
2019-03-20T21:57:23.051Z,0.00
2019-03-20T21:58:23.045Z,0.00
2019-03-20T21:59:23.036Z,0.00
2019-03-20T22:00:23.031Z,0.00
2019-03-20T22:01:23.025Z,0.00
2019-03-20T22:02:23.015Z,0.00
2019-03-20T22:03:23.010Z,0.00
2019-03-20T22:04:23.005Z,0.00
2019-03-20T22:05:23.486Z,0.00
2019-03-20T22:06:22.995Z,0.00
2019-03-20T22:07:22.986Z,0.00
2019-03-20T22:08:22.979Z,0.00
2019-03-20T22:09:22.992Z,0.00
2019-03-20T22:10:23.013Z,0.00
2019-03-20T22:11:22.959Z,0.00
2019-03-20T22:12:22.950Z,0.00
2019-03-20T22:13:22.945Z,0.00
2019-03-20T22:14:22.938Z,0.00
2019-03-20T22:15:22.929Z,0.00
2019-03-20T22:16:22.928Z,0.00
2019-03-20T22:17:22.916Z,0.00
2019-03-20T22:18:22.909Z,0.00
2019-03-20T22:19:22.905Z,0.00
2019-03-20T22:20:22.898Z,0.00
2019-03-20T22:21:22.940Z,0.00
2019-03-20T22:22:22.913Z,0.00
2019-03-20T22:23:22.876Z,0.00
2019-03-20T22:24:22.871Z,0.00
2019-03-20T22:25:22.869Z,0.00
2019-03-20T22:26:22.861Z,0.00
2019-03-20T22:27:22.855Z,0.00
2019-03-20T22:28:22.847Z,0.00
2019-03-20T22:29:22.863Z,0.00
2019-03-20T22:30:22.859Z,0.00
2019-03-20T22:31:22.851Z,0.00
2019-03-20T22:32:22.893Z,0.00
2019-03-20T22:33:22.837Z,0.00
2019-03-20T22:34:22.851Z,0.00
2019-03-20T22:35:22.843Z,0.00
2019-03-20T22:36:22.842Z,0.00
2019-03-20T22:37:22.833Z,0.00
2019-03-20T22:38:22.827Z,0.00
2019-03-20T22:39:22.820Z,0.00
2019-03-20T22:40:22.815Z,0.00
2019-03-20T22:41:22.808Z,0.00
2019-03-20T22:42:22.802Z,0.00
2019-03-20T22:43:30.033Z,0.00
2019-03-20T22:44:50.511Z,0.00
2019-03-20T22:45:50.509Z,0.00
2019-03-20T22:46:50.502Z,0.00
2019-03-20T22:47:50.497Z,0.00
2019-03-20T22:48:50.489Z,0.00
2019-03-20T22:49:50.480Z,0.00
2019-03-20T22:50:50.473Z,0.00
2019-03-20T22:51:50.465Z,0.00
2019-03-20T22:52:50.456Z,0.00
2019-03-20T22:53:50.451Z,0.00
2019-03-20T22:54:50.442Z,0.00
2019-03-20T22:55:50.437Z,0.00
2019-03-20T22:56:50.431Z,0.00
2019-03-20T22:57:50.423Z,0.00
2019-03-20T22:58:50.416Z,0.00
2019-03-20T22:59:50.460Z,0.00
2019-03-20T23:00:50.400Z,0.00
2019-03-20T23:01:50.396Z,0.00
2019-03-20T23:02:50.387Z,0.00
2019-03-20T23:03:50.382Z,0.00
2019-03-20T23:04:50.375Z,0.00
2019-03-20T23:05:50.393Z,0.00
2019-03-20T23:06:50.390Z,0.00
2019-03-20T23:07:50.379Z,0.00
2019-03-20T23:08:50.370Z,0.00
2019-03-20T23:09:50.361Z,0.00
2019-03-20T23:10:50.356Z,0.00
2019-03-20T23:11:50.347Z,0.00
2019-03-20T23:12:50.341Z,0.00
2019-03-20T23:13:50.334Z,0.00
2019-03-20T23:14:50.330Z,0.00
2019-03-20T23:15:50.322Z,0.00
2019-03-20T23:16:50.313Z,0.00
2019-03-20T23:17:50.310Z,0.00
2019-03-20T23:18:50.299Z,0.00
2019-03-20T23:19:50.316Z,0.00
2019-03-20T23:20:50.310Z,0.00
2019-03-20T23:21:50.304Z,0.00
2019-03-20T23:22:50.297Z,0.00
2019-03-20T23:23:50.291Z,0.00
2019-03-20T23:24:50.283Z,0.00
2019-03-20T23:25:50.277Z,0.00
2019-03-20T23:26:50.272Z,0.00
2019-03-20T23:27:50.264Z,0.00
2019-03-20T23:28:50.254Z,0.00
2019-03-20T23:29:50.247Z,0.00
2019-03-20T23:30:50.242Z,0.00
2019-03-20T23:31:50.235Z,0.00
2019-03-20T23:32:50.229Z,0.00
2019-03-20T23:33:50.223Z,0.00
2019-03-20T23:34:50.213Z,0.00
2019-03-20T23:35:50.207Z,0.00
2019-03-20T23:36:50.202Z,0.00
2019-03-20T23:37:50.195Z,0.00
2019-03-20T23:38:50.187Z,0.00
2019-03-20T23:39:50.178Z,0.00
2019-03-20T23:40:50.173Z,0.00
2019-03-20T23:41:50.168Z,0.00
2019-03-20T23:42:50.165Z,0.00
2019-03-20T23:43:53.129Z,0.00
2019-03-20T23:44:50.150Z,0.00
2019-03-20T23:45:50.143Z,0.00
2019-03-20T23:46:50.138Z,0.00
2019-03-20T23:47:50.130Z,0.00
2019-03-20T23:48:50.123Z,0.00
2019-03-20T23:49:50.115Z,0.00
2019-03-20T23:50:50.108Z,0.00
2019-03-20T23:51:50.104Z,0.00
2019-03-20T23:52:50.097Z,0.00
2019-03-20T23:53:50.090Z,0.00
2019-03-20T23:54:50.085Z,0.00
2019-03-20T23:55:50.074Z,0.00
2019-03-20T23:56:50.070Z,0.00
2019-03-20T23:57:50.065Z,0.00
2019-03-20T23:58:50.056Z,0.00
2019-03-20T23:59:50.051Z,0.00
